Time;durP1;ratioP1;P1;durP2;ratioP2;P2;SDS_P1;SDS_P2;PMS_P1;PMS_P2;Temp;Humidity;BMP_temperature;BMP_pressure;BME280_temperature;BME280_humidity;BME280_pressure;Samples;Min_cycle;Max_cycle;Signal;HPM_P1;HPM_P2
2023/10/13 00:00:33;;;;;;;;;;;;;;;9.19;100.00;100203.31;5074732;28;822;-59
2023/10/13 00:03:00;;;;;;;;;;;;;;;9.22;100.00;100200.97;5074548;28;878;-59
2023/10/13 00:05:30;;;;;;;;;;;;;;;9.19;100.00;100197.78;5074536;28;877;-59
2023/10/13 00:08:02;;;;;;;;;;;;;;;9.19;100.00;100202.53;5074622;28;885;-59
2023/10/13 00:10:30;;;;;;;;;;;;;;;9.19;100.00;100199.75;5074454;28;824;-59
2023/10/13 00:15:56;;;;;;;;;;;;;;;9.15;100.00;100198.94;5074058;28;1965;-59
2023/10/13 00:18:34;;;;;;;;;;;;;;;9.15;100.00;100197.00;5074374;28;1300;-59
2023/10/13 00:21:14;;;;;;;;;;;;;;;9.15;100.00;100197.00;5074403;28;862;-59
2023/10/13 00:23:53;;;;;;;;;;;;;;;9.13;100.00;100188.31;5074309;28;810;-59
2023/10/13 00:26:35;;;;;;;;;;;;;;;9.13;100.00;100188.31;5074129;28;869;-59
2023/10/13 00:31:43;;;;;;;;;;;;;;;9.10;100.00;100182.78;5073848;28;824;-59
2023/10/13 00:34:20;;;;;;;;;;;;;;;9.11;100.00;100190.66;5073386;28;885;-59
2023/10/13 00:36:48;;;;;;;;;;;;;;;9.13;100.00;100179.22;5074188;28;1889;-59
2023/10/13 00:39:18;;;;;;;;;;;;;;;9.17;100.00;100185.56;5073858;28;862;-59
2023/10/13 00:41:50;;;;;;;;;;;;;;;9.19;100.00;100184.00;5073951;28;812;-59
2023/10/13 00:44:18;;;;;;;;;;;;;;;9.20;100.00;100185.59;5073799;28;964;-59
2023/10/13 00:46:45;;;;;;;;;;;;;;;9.19;100.00;100185.97;5073649;28;977;-59
2023/10/13 00:49:15;;;;;;;;;;;;;;;9.16;100.00;100190.28;5073755;28;1261;-60
2023/10/13 00:51:47;;;;;;;;;;;;;;;9.15;100.00;100177.69;5073751;28;897;-59
2023/10/13 00:54:18;;;;;;;;;;;;;;;9.17;100.00;100180.88;5073661;28;934;-60
2023/10/13 00:56:57;;;;;;;;;;;;;;;9.17;100.00;100175.34;5073328;28;1944;-60
2023/10/13 00:59:25;;;;;;;;;;;;;;;9.18;100.00;100171.41;5073517;28;866;-59
2023/10/13 01:01:55;;;;;;;;;;;;;;;9.19;100.00;100172.19;5073386;28;937;-59
2023/10/13 01:04:28;;;;;;;;;;;;;;;9.20;100.00;100173.78;5073365;28;926;-60
2023/10/13 01:06:55;;;;;;;;;;;;;;;9.13;100.00;100169.00;5072242;28;962;-59
2023/10/13 01:09:24;;;;;;;;;;;;;;;9.07;100.00;100169.72;5073334;28;810;-59
2023/10/13 01:11:55;;;;;;;;;;;;;;;8.98;100.00;100168.13;5073272;28;886;-60
2023/10/13 01:14:27;;;;;;;;;;;;;;;8.93;100.00;100170.44;5072664;28;1200;-60
2023/10/13 01:16:55;;;;;;;;;;;;;;;8.88;100.00;100168.03;5071853;28;1914;-59
2023/10/13 01:19:27;;;;;;;;;;;;;;;8.82;100.00;100164.06;5073012;28;1248;-60
2023/10/13 01:22:04;;;;;;;;;;;;;;;8.77;100.00;100157.72;5073774;28;879;-59
2023/10/13 01:24:37;;;;;;;;;;;;;;;8.73;100.00;100161.63;5072855;28;933;-59
2023/10/13 01:27:17;;;;;;;;;;;;;;;8.68;100.00;100164.72;5072962;28;818;-59
2023/10/13 01:29:50;;;;;;;;;;;;;;;8.62;100.00;100163.47;5072863;28;842;-59
2023/10/13 01:32:18;;;;;;;;;;;;;;;8.53;100.00;100161.81;5072790;28;913;-59
2023/10/13 01:34:46;;;;;;;;;;;;;;;8.50;100.00;100164.56;5073019;28;866;-59
2023/10/13 01:37:12;;;;;;;;;;;;;;;8.43;100.00;100165.28;5072630;28;1956;-59
2023/10/13 01:39:39;;;;;;;;;;;;;;;8.39;100.00;100165.22;5071925;28;814;-59
2023/10/13 01:42:06;;;;;;;;;;;;;;;8.36;100.00;100157.72;5072664;28;908;-59
2023/10/13 01:44:32;;;;;;;;;;;;;;;8.31;100.00;100157.25;5072666;28;965;-59
2023/10/13 01:47:06;;;;;;;;;;;;;;;8.29;100.00;100160.38;5072552;28;860;-60
2023/10/13 01:49:41;;;;;;;;;;;;;;;8.32;100.00;100156.09;5071476;28;866;-59
2023/10/13 01:52:11;;;;;;;;;;;;;;;8.30;100.00;100156.47;5072490;28;952;-59
2023/10/13 01:54:41;;;;;;;;;;;;;;;8.30;100.00;100148.22;5072353;28;845;-60
2023/10/13 01:57:08;;;;;;;;;;;;;;;8.28;100.00;100147.00;5072422;28;1921;-60
2023/10/13 01:59:43;;;;;;;;;;;;;;;8.28;100.00;100149.75;5072335;28;809;-60
2023/10/13 02:02:13;;;;;;;;;;;;;;;8.29;100.00;100143.09;5072501;28;929;-59
2023/10/13 02:04:48;;;;;;;;;;;;;;;8.30;100.00;100145.47;5072358;28;873;-60
2023/10/13 02:07:16;;;;;;;;;;;;;;;8.32;100.00;100142.31;5072240;28;957;-59
2023/10/13 02:09:42;;;;;;;;;;;;;;;8.35;100.00;100141.56;5072312;28;798;-60
2023/10/13 02:12:10;;;;;;;;;;;;;;;8.42;100.00;100143.63;5072150;28;818;-59
2023/10/13 02:14:38;;;;;;;;;;;;;;;8.41;100.00;100145.59;5072128;28;1019;-60
2023/10/13 02:17:13;;;;;;;;;;;;;;;8.41;100.00;100144.78;5072056;28;1977;-60
2023/10/13 02:19:44;;;;;;;;;;;;;;;8.40;100.00;100152.22;5072590;28;886;-60
2023/10/13 02:22:11;;;;;;;;;;;;;;;8.41;100.00;100144.78;5071949;28;937;-60
2023/10/13 02:24:41;;;;;;;;;;;;;;;8.43;100.00;100145.19;5071939;28;878;-60
2023/10/13 02:27:13;;;;;;;;;;;;;;;8.41;100.00;100142.84;5072053;28;901;-60
2023/10/13 02:29:40;;;;;;;;;;;;;;;8.36;100.00;100148.66;5072082;28;826;-60
2023/10/13 02:32:18;;;;;;;;;;;;;;;8.30;100.00;100153.72;5071974;28;861;-60
2023/10/13 02:34:44;;;;;;;;;;;;;;;8.32;100.00;100156.09;5071922;28;893;-60
2023/10/13 02:37:12;;;;;;;;;;;;;;;8.31;100.00;100155.31;5072050;28;1898;-60
2023/10/13 02:39:41;;;;;;;;;;;;;;;8.31;100.00;100155.31;5070546;28;878;-60
2023/10/13 02:42:08;;;;;;;;;;;;;;;8.28;100.00;100158.00;5071786;28;854;-60
2023/10/13 02:44:36;;;;;;;;;;;;;;;8.25;100.00;100158.78;5071977;28;915;-60
2023/10/13 02:47:13;;;;;;;;;;;;;;;8.20;100.00;100154.41;5071731;28;894;-60
2023/10/13 02:49:43;;;;;;;;;;;;;;;8.13;100.00;100157.88;5071625;28;964;-60
2023/10/13 02:52:10;;;;;;;;;;;;;;;8.05;100.00;100164.47;5071736;28;885;-60
2023/10/13 02:54:40;;;;;;;;;;;;;;;7.95;100.00;100156.88;5071904;28;896;-60
2023/10/13 02:57:06;;;;;;;;;;;;;;;7.85;100.00;100161.13;5075015;28;1957;-60
2023/10/13 02:59:46;;;;;;;;;;;;;;;7.77;100.00;100162.97;5075955;28;1255;-60
2023/10/13 03:02:25;;;;;;;;;;;;;;;7.68;100.00;100159.72;5075714;28;929;-60
2023/10/13 03:04:59;;;;;;;;;;;;;;;7.66;100.00;100155.75;5075692;28;874;-60
2023/10/13 03:07:28;;;;;;;;;;;;;;;7.61;100.00;100156.88;5075725;28;817;-59
2023/10/13 03:09:57;;;;;;;;;;;;;;;7.57;100.00;100162.34;5075674;28;817;-60
2023/10/13 03:12:33;;;;;;;;;;;;;;;7.48;100.00;100158.28;5075467;28;1180;-60
2023/10/13 03:15:20;;;;;;;;;;;;;;;7.40;100.00;100148.34;5075273;28;1263;-60
2023/10/13 03:17:47;;;;;;;;;;;;;;;7.32;100.00;100150.22;5075809;28;1981;-60
2023/10/13 03:20:16;;;;;;;;;;;;;;;7.25;100.00;100152.84;5075780;28;802;-60
2023/10/13 03:22:45;;;;;;;;;;;;;;;7.18;100.00;100145.28;5075247;28;945;-60
2023/10/13 03:30:35;;;;;;;;;;;;;;;6.97;100.00;100142.22;5075193;28;933;-60
2023/10/13 03:33:06;;;;;;;;;;;;;;;6.99;100.00;100135.19;5075162;28;968;-60
2023/10/13 03:35:37;;;;;;;;;;;;;;;7.02;100.00;100133.66;5075037;28;909;-60
2023/10/13 03:38:14;;;;;;;;;;;;;;;7.04;100.00;100137.66;5075207;28;944;-60
2023/10/13 03:40:41;;;;;;;;;;;;;;;7.06;100.00;100121.59;5075089;28;834;-60
2023/10/13 03:43:10;;;;;;;;;;;;;;;7.04;100.00;100120.34;5075312;28;878;-60
2023/10/13 03:45:47;;;;;;;;;;;;;;;7.02;100.00;100126.22;5075074;28;947;-60
2023/10/13 03:49:02;;;;;;;;;;;;;;;6.88;100.00;100098.53;5074998;28;1123;-60
2023/10/13 03:51:10;;;;;;;;;;;;;;;7.04;100.00;100128.59;5060000;28;1640;-60
2023/10/13 03:54:07;;;;;;;;;;;;;;;6.96;100.00;100130.47;5074625;28;894;-59
2023/10/13 03:56:38;;;;;;;;;;;;;;;6.90;100.00;100131.94;5073553;28;1882;-60
2023/10/13 03:59:09;;;;;;;;;;;;;;;6.82;100.00;100130.22;5074906;28;964;-59
2023/10/13 04:10:09;;;;;;;;;;;;;;;6.73;100.00;100128.53;5074522;28;671;-60
2023/10/13 04:15:23;;;;;;;;;;;;;;;6.75;100.00;100133.66;5074376;28;1118;-60
2023/10/13 04:17:50;;;;;;;;;;;;;;;6.73;100.00;100127.75;5074280;28;1914;-60
2023/10/13 04:20:27;;;;;;;;;;;;;;;6.70;100.00;100128.47;5074242;28;893;-60
2023/10/13 04:23:16;;;;;;;;;;;;;;;6.68;100.00;100126.09;5074105;28;960;-60
2023/10/13 04:33:38;;;;;;;;;;;;;;;6.86;100.00;100134.63;5074127;28;801;-60
2023/10/13 04:37:22;;;;;;;;;;;;;;;6.99;100.00;100140.69;5073920;28;1949;-60
2023/10/13 04:41:38;;;;;;;;;;;;;;;7.26;100.00;100151.69;5073915;28;700;-60
2023/10/13 04:49:52;;;;;;;;;;;;;;;7.84;100.00;100155.97;5073834;28;700;-60
2023/10/13 05:51:57;;;;;;;;;;;;;;;11.45;100.00;100192.03;5092686;28;691;-60
2023/10/13 06:30:17;;;;;;;;;;;;;;;13.38;100.00;100242.88;5091432;28;688;-60
2023/10/13 06:32:46;;;;;;;;;;;;;;;13.48;100.00;100233.66;5073951;28;1521;-60
2023/10/13 06:35:24;;;;;;;;;;;;;;;13.66;100.00;100239.03;5092052;28;929;-60
2023/10/13 06:37:51;;;;;;;;;;;;;;;13.84;100.00;100246.38;5092339;28;1964;-58
2023/10/13 07:14:19;;;;;;;;;;;;;;;18.41;100.00;100239.50;5384369;23;2013;-60
2023/10/13 07:17:00;;;;;;;;;;;;;;;19.20;100.00;100239.03;5070274;28;2358;-60
2023/10/13 07:19:29;;;;;;;;;;;;;;;19.73;100.00;100228.03;5090338;28;852;-60
2023/10/13 07:22:02;;;;;;;;;;;;;;;19.84;100.00;100227.63;5091673;28;845;-60
2023/10/13 07:24:32;;;;;;;;;;;;;;;19.93;99.55;100230.53;5091714;28;854;-60
2023/10/13 07:27:10;;;;;;;;;;;;;;;19.85;100.00;100229.22;5091582;28;872;-60
2023/10/13 07:29:37;;;;;;;;;;;;;;;19.72;100.00;100226.47;5073591;28;869;-60
2023/10/13 07:32:09;;;;;;;;;;;;;;;19.42;100.00;100225.09;5091659;28;933;-60
2023/10/13 07:34:39;;;;;;;;;;;;;;;19.00;100.00;100237.28;5091458;28;858;-60
2023/10/13 07:37:08;;;;;;;;;;;;;;;18.88;100.00;100227.69;5091212;28;1893;-60
2023/10/13 07:39:38;;;;;;;;;;;;;;;19.01;100.00;100218.47;5091394;28;967;-60
2023/10/13 07:42:19;;;;;;;;;;;;;;;19.44;100.00;100219.81;5092954;28;929;-60
2023/10/13 07:44:45;;;;;;;;;;;;;;;20.30;100.00;100211.09;5095110;28;1006;-60
2023/10/13 07:47:14;;;;;;;;;;;;;;;20.86;97.36;100224.16;5095423;28;948;-60
2023/10/13 07:49:40;;;;;;;;;;;;;;;21.15;95.24;100231.41;5095148;28;830;-60
2023/10/13 07:54:59;;;;;;;;;;;;;;;21.84;76.02;100218.81;5095058;28;791;-60
2023/10/13 07:57:29;;;;;;;;;;;;;;;22.07;75.48;100220.19;5095196;28;1961;-60
2023/10/13 08:00:25;;;;;;;;;;;;;;;22.62;73.25;100214.41;5094975;28;829;-60
2023/10/13 08:08:21;;;;;;;;;;;;;;;22.93;69.73;100218.94;5095090;28;632;-60
2023/10/13 08:10:48;;;;;;;;;;;;;;;23.06;68.83;100223.59;5094738;28;906;-60
2023/10/13 08:13:14;;;;;;;;;;;;;;;23.06;69.12;100215.91;5094654;28;915;-60
2023/10/13 08:15:47;;;;;;;;;;;;;;;23.04;69.06;100224.06;5094565;28;1260;-60
2023/10/13 08:18:19;;;;;;;;;;;;;;;23.11;68.83;100217.31;5094950;28;806;-60
2023/10/13 08:20:47;;;;;;;;;;;;;;;23.19;68.12;100212.88;5094580;28;848;-60
2023/10/13 08:23:13;;;;;;;;;;;;;;;23.23;67.98;100214.25;5094381;28;886;-60
2023/10/13 08:31:30;;;;;;;;;;;;;;;23.73;66.03;100205.25;5094301;28;813;-60
2023/10/13 08:34:16;;;;;;;;;;;;;;;23.88;65.99;100208.13;5093157;28;1452;-60
2023/10/13 08:36:42;;;;;;;;;;;;;;;23.90;64.72;100204.78;5094099;28;1885;-60
2023/10/13 08:39:58;;;;;;;;;;;;;;;23.93;64.50;100206.66;5075998;28;1404;-60
2023/10/13 08:42:23;;;;;;;;;;;;;;;24.13;64.22;100201.13;5094003;28;1531;-60
2023/10/13 08:44:52;;;;;;;;;;;;;;;24.26;64.25;100203.66;5094056;28;1229;-59
2023/10/13 08:47:20;;;;;;;;;;;;;;;24.18;58.71;100194.78;5094237;28;846;-60
2023/10/13 08:49:52;;;;;;;;;;;;;;;23.92;57.15;100190.97;5093843;28;875;-60
2023/10/13 08:55:36;;;;;;;;;;;;;;;24.03;54.32;100188.38;5093469;28;1209;-60
2023/10/13 08:57:53;;;;;;;;;;;;;;;24.01;53.30;100188.06;5093487;28;1881;-60
2023/10/13 09:00:55;;;;;;;;;;;;;;;23.98;51.77;100189.03;5093762;28;949;-60
2023/10/13 09:06:06;;;;;;;;;;;;;;;24.46;50.90;100183.94;5094019;28;804;-60
2023/10/13 09:08:44;;;;;;;;;;;;;;;24.91;48.77;100183.84;5093948;28;797;-61
2023/10/13 09:11:13;;;;;;;;;;;;;;;24.95;46.12;100181.56;5075325;28;924;-60
2023/10/13 09:13:45;;;;;;;;;;;;;;;24.91;45.58;100180.22;5093602;28;1305;-60
2023/10/13 09:16:51;;;;;;;;;;;;;;;24.80;45.91;100178.03;5069731;28;1910;-59
2023/10/13 09:19:11;;;;;;;;;;;;;;;25.11;45.73;100176.63;5073146;28;1790;-59
2023/10/13 09:24:21;;;;;;;;;;;;;;;25.27;44.39;100173.28;5073113;28;805;-60
2023/10/13 09:27:01;;;;;;;;;;;;;;;25.53;44.60;100169.69;5072949;28;896;-60
2023/10/13 09:29:29;;;;;;;;;;;;;;;25.78;43.47;100171.78;5073015;28;849;-60
2023/10/13 09:32:11;;;;;;;;;;;;;;;25.94;42.38;100163.97;5073063;28;954;-60
2023/10/13 09:34:44;;;;;;;;;;;;;;;25.92;42.13;100160.84;5072768;28;913;-60
2023/10/13 09:37:11;;;;;;;;;;;;;;;26.01;41.54;100161.47;5072230;28;1890;-60
2023/10/13 09:40:24;;;;;;;;;;;;;;;26.18;41.28;100155.94;5072806;28;805;-59
2023/10/13 09:42:28;;;;;;;;;;;;;;;26.64;39.61;100157.81;5070183;28;1484;-60
2023/10/13 09:45:04;;;;;;;;;;;;;;;26.85;39.24;100157.69;5054813;28;916;-60
2023/10/13 09:47:36;;;;;;;;;;;;;;;26.82;39.03;100150.19;5072953;28;830;-60
2023/10/13 09:50:05;;;;;;;;;;;;;;;26.94;38.26;100151.78;5072478;28;930;-60
2023/10/13 09:52:32;;;;;;;;;;;;;;;27.02;38.07;100144.34;5072437;28;881;-60
2023/10/13 09:55:02;;;;;;;;;;;;;;;26.94;37.93;100148.19;5072419;28;919;-59
2023/10/13 09:57:40;;;;;;;;;;;;;;;26.60;37.83;100140.25;5072548;28;1940;-60
2023/10/13 10:00:56;;;;;;;;;;;;;;;26.34;38.32;100146.00;5072597;28;830;-57
2023/10/13 10:03:14;;;;;;;;;;;;;;;26.54;38.26;100130.16;5063777;28;1637;-57
2023/10/13 10:18:05;;;;;;;;;;;;;;;28.52;32.97;100114.38;5109775;28;1994;-57
2023/10/13 10:20:47;;;;;;;;;;;;;;;28.56;32.24;100109.19;5112735;28;817;-57
2023/10/13 10:23:24;;;;;;;;;;;;;;;28.98;32.01;100108.00;5112742;28;921;-57
2023/10/13 10:25:51;;;;;;;;;;;;;;;29.52;31.11;100101.00;5112443;28;921;-57
2023/10/13 10:28:19;;;;;;;;;;;;;;;29.61;30.89;100099.91;5112658;28;822;-57
2023/10/13 10:30:45;;;;;;;;;;;;;;;29.79;30.10;100098.53;5112320;28;932;-57
2023/10/13 10:33:13;;;;;;;;;;;;;;;30.22;30.16;100095.78;5112537;28;824;-57
2023/10/13 10:35:42;;;;;;;;;;;;;;;30.71;28.76;100090.09;5112664;28;933;-57
2023/10/13 10:38:23;;;;;;;;;;;;;;;30.60;28.49;100092.28;5112274;28;1905;-57
2023/10/13 10:41:00;;;;;;;;;;;;;;;30.17;28.63;100088.09;5112247;28;929;-57
2023/10/13 10:43:48;;;;;;;;;;;;;;;29.79;28.98;100089.97;5112342;28;837;-57
2023/10/13 10:46:18;;;;;;;;;;;;;;;29.56;29.04;100089.34;5112728;28;889;-57
2023/10/13 10:48:47;;;;;;;;;;;;;;;29.41;28.69;100084.78;5112686;28;1345;-57
2023/10/13 10:51:15;;;;;;;;;;;;;;;29.15;28.68;100087.25;5112254;28;940;-57
2023/10/13 10:53:44;;;;;;;;;;;;;;;29.01;29.18;100094.81;5112257;28;990;-57
2023/10/13 10:56:22;;;;;;;;;;;;;;;29.17;29.49;100090.34;5112391;28;1893;-57
2023/10/13 10:58:56;;;;;;;;;;;;;;;29.42;29.10;100089.16;5112246;28;907;-57
2023/10/13 11:01:24;;;;;;;;;;;;;;;29.37;29.16;100086.38;5112473;28;813;-57
2023/10/13 11:03:57;;;;;;;;;;;;;;;29.59;28.95;100083.34;5093965;28;1337;-57
2023/10/13 11:06:27;;;;;;;;;;;;;;;29.63;28.75;100080.97;5112196;28;866;-57
2023/10/13 11:09:03;;;;;;;;;;;;;;;29.31;28.73;100087.16;5112050;28;920;-57
2023/10/13 11:11:36;;;;;;;;;;;;;;;29.02;28.98;100079.28;5112277;28;892;-57
2023/10/13 11:14:38;;;;;;;;;;;;;;;28.87;29.23;100082.47;5112477;28;943;-57
2023/10/13 11:17:16;;;;;;;;;;;;;;;28.90;29.02;100075.72;5107275;28;1877;-57
2023/10/13 11:19:43;;;;;;;;;;;;;;;29.07;29.10;100075.63;5116037;28;901;-57
2023/10/13 11:22:10;;;;;;;;;;;;;;;29.57;28.30;100070.94;5116085;28;949;-57
2023/10/13 11:24:42;;;;;;;;;;;;;;;29.55;28.00;100065.78;5116005;28;861;-57
2023/10/13 11:27:21;;;;;;;;;;;;;;;29.69;28.06;100063.88;5116038;28;825;-57
2023/10/13 11:29:52;;;;;;;;;;;;;;;29.97;27.50;100063.63;5115875;28;941;-57
2023/10/13 11:32:20;;;;;;;;;;;;;;;29.96;27.45;100062.13;5116003;28;849;-57
2023/10/13 11:34:54;;;;;;;;;;;;;;;30.16;26.81;100060.88;5115755;28;922;-57
2023/10/13 11:37:37;;;;;;;;;;;;;;;30.63;26.47;100057.78;5115720;28;1973;-57
2023/10/13 11:40:12;;;;;;;;;;;;;;;30.99;26.13;100062.56;5115865;28;1014;-57
2023/10/13 11:42:43;;;;;;;;;;;;;;;31.88;25.37;100062.50;5115813;28;870;-58
2023/10/13 11:45:29;;;;;;;;;;;;;;;31.64;24.79;100063.41;5115653;28;910;-57
2023/10/13 11:48:00;;;;;;;;;;;;;;;31.63;24.73;100070.47;5115532;28;976;-57
2023/10/13 11:50:33;;;;;;;;;;;;;;;31.59;24.56;100075.72;5115535;28;913;-57
2023/10/13 11:53:00;;;;;;;;;;;;;;;31.79;24.05;100063.69;5115644;28;964;-57
2023/10/13 11:55:27;;;;;;;;;;;;;;;32.40;23.17;100066.00;5115419;28;937;-57
2023/10/13 11:57:54;;;;;;;;;;;;;;;31.93;22.55;100073.81;5115489;28;1889;-57
2023/10/13 12:00:50;;;;;;;;;;;;;;;30.69;23.94;100072.75;5115441;28;937;-57
2023/10/13 12:08:49;;;;;;;;;;;;;;;28.83;25.55;100067.75;5115448;28;640;-57
2023/10/13 12:11:32;;;;;;;;;;;;;;;28.96;25.57;100055.78;5115384;28;926;-57
2023/10/13 12:14:11;;;;;;;;;;;;;;;28.75;25.15;100056.13;5115292;28;1096;-57
2023/10/13 12:16:38;;;;;;;;;;;;;;;28.68;25.53;100062.38;5114989;28;1882;-57
2023/10/13 12:19:09;;;;;;;;;;;;;;;28.71;25.73;100059.25;5114726;28;1404;-57
2023/10/13 12:21:37;;;;;;;;;;;;;;;28.49;26.44;100062.94;5114889;28;909;-57
2023/10/13 12:24:11;;;;;;;;;;;;;;;28.24;27.05;100066.88;5114800;28;859;-57
2023/10/13 12:26:41;;;;;;;;;;;;;;;28.07;27.28;100056.28;5114897;28;865;-57
2023/10/13 12:29:18;;;;;;;;;;;;;;;27.80;26.99;100062.75;5113344;28;911;-57
2023/10/13 12:31:52;;;;;;;;;;;;;;;27.56;27.73;100066.88;5114929;28;894;-57
2023/10/13 12:34:31;;;;;;;;;;;;;;;27.42;28.16;100063.00;5114715;28;881;-57
2023/10/13 12:37:05;;;;;;;;;;;;;;;27.23;28.30;100067.63;5114557;28;2038;-57
2023/10/13 12:50:44;;;;;;;;;;;;;;;27.73;27.88;100058.34;5114732;28;674;-57
2023/10/13 12:53:13;;;;;;;;;;;;;;;27.67;27.57;100057.59;5114340;28;917;-57
2023/10/13 12:55:40;;;;;;;;;;;;;;;27.86;27.45;100057.88;5114164;28;884;-57
2023/10/13 12:58:06;;;;;;;;;;;;;;;27.88;27.55;100064.56;5114291;28;1948;-57
2023/10/13 13:00:33;;;;;;;;;;;;;;;27.69;27.76;100074.88;5114257;28;940;-57
2023/10/13 13:02:59;;;;;;;;;;;;;;;27.33;28.09;100066.06;5114157;28;845;-57
2023/10/13 13:05:29;;;;;;;;;;;;;;;27.13;28.72;100067.03;5114056;28;909;-57
2023/10/13 13:07:56;;;;;;;;;;;;;;;27.16;28.62;100063.19;5113829;28;865;-57
2023/10/13 13:10:37;;;;;;;;;;;;;;;27.17;29.23;100063.94;5113967;28;909;-56
2023/10/13 13:13:05;;;;;;;;;;;;;;;27.06;29.65;100059.78;5114023;28;928;-57
2023/10/13 13:15:31;;;;;;;;;;;;;;;26.91;29.76;100058.44;5114251;28;924;-57
2023/10/13 13:18:09;;;;;;;;;;;;;;;26.78;30.32;100053.25;5091858;28;1893;-57
2023/10/13 13:20:39;;;;;;;;;;;;;;;26.64;30.27;100058.59;5093495;28;932;-57
2023/10/13 13:23:05;;;;;;;;;;;;;;;26.41;30.11;100062.59;5093531;28;1300;-57
2023/10/13 13:25:32;;;;;;;;;;;;;;;26.33;30.59;100059.47;5093769;28;806;-57
2023/10/13 13:28:04;;;;;;;;;;;;;;;26.37;30.49;100057.16;5094065;28;830;-57
2023/10/13 13:30:34;;;;;;;;;;;;;;;26.73;30.67;100063.28;5093317;28;893;-57
2023/10/13 13:33:10;;;;;;;;;;;;;;;27.42;29.83;100065.84;5093386;28;861;-57
2023/10/13 13:35:38;;;;;;;;;;;;;;;28.16;29.50;100055.25;5093125;28;925;-57
2023/10/13 13:38:13;;;;;;;;;;;;;;;28.35;29.08;100063.22;5092940;28;1972;-57
2023/10/13 13:40:40;;;;;;;;;;;;;;;28.63;28.55;100066.78;5092700;28;850;-57
2023/10/13 13:43:06;;;;;;;;;;;;;;;28.80;28.28;100061.00;5093147;28;927;-57
2023/10/13 13:45:34;;;;;;;;;;;;;;;28.98;28.11;100056.03;5092840;28;878;-57
2023/10/13 13:48:07;;;;;;;;;;;;;;;28.57;28.33;100059.56;5092999;28;1280;-57
2023/10/13 13:50:41;;;;;;;;;;;;;;;28.05;28.83;100070.25;5091535;28;1249;-57
2023/10/13 13:53:11;;;;;;;;;;;;;;;27.52;29.14;100076.94;5091641;28;1594;-57
2023/10/13 13:55:39;;;;;;;;;;;;;;;27.02;30.02;100075.50;5092885;28;1330;-57
2023/10/13 13:58:07;;;;;;;;;;;;;;;26.61;30.52;100073.81;5092845;28;1956;-57
2023/10/13 14:00:48;;;;;;;;;;;;;;;26.33;31.61;100073.63;5092824;28;960;-57
2023/10/13 14:03:49;;;;;;;;;;;;;;;26.16;31.49;100067.84;5092707;28;830;-56
2023/10/13 14:06:16;;;;;;;;;;;;;;;26.08;31.90;100066.75;5089145;28;1587;-57
2023/10/13 14:08:44;;;;;;;;;;;;;;;26.03;32.49;100065.44;5092539;28;877;-57
2023/10/13 14:11:21;;;;;;;;;;;;;;;25.96;32.44;100073.63;5092448;28;866;-57
2023/10/13 14:13:52;;;;;;;;;;;;;;;25.81;33.13;100066.00;5092808;28;961;-57
2023/10/13 14:16:22;;;;;;;;;;;;;;;25.80;33.15;100064.47;5092493;28;1885;-57
2023/10/13 14:18:50;;;;;;;;;;;;;;;25.75;33.79;100061.59;5109669;28;1228;-57
2023/10/13 14:21:19;;;;;;;;;;;;;;;25.58;34.35;100064.25;5112554;28;1072;-57
2023/10/13 14:23:45;;;;;;;;;;;;;;;25.46;34.34;100067.00;5112814;28;873;-57
2023/10/13 14:26:25;;;;;;;;;;;;;;;25.37;34.44;100067.19;5112921;28;836;-57
2023/10/13 14:29:00;;;;;;;;;;;;;;;25.29;34.65;100066.06;5112570;28;857;-57
2023/10/13 14:31:31;;;;;;;;;;;;;;;25.27;34.88;100062.97;5112557;28;869;-57
2023/10/13 14:33:58;;;;;;;;;;;;;;;25.28;34.89;100058.84;5094232;28;962;-57
2023/10/13 14:36:28;;;;;;;;;;;;;;;25.14;35.67;100059.72;5112216;28;1917;-57
2023/10/13 14:38:57;;;;;;;;;;;;;;;24.85;36.67;100065.03;5112559;28;948;-57
2023/10/13 14:41:24;;;;;;;;;;;;;;;24.49;38.16;100066.34;5112772;28;826;-57
2023/10/13 14:43:50;;;;;;;;;;;;;;;24.16;39.59;100058.19;5112358;28;863;-56
2023/10/13 14:46:23;;;;;;;;;;;;;;;23.98;39.97;100067.63;5112482;28;876;-56
2023/10/13 14:48:52;;;;;;;;;;;;;;;23.80;40.89;100069.41;5112380;28;1242;-56
2023/10/13 14:51:19;;;;;;;;;;;;;;;23.69;41.43;100071.25;5111834;28;1163;-56
2023/10/13 14:53:46;;;;;;;;;;;;;;;23.65;41.83;100079.91;5112591;28;821;-56
2023/10/13 14:56:13;;;;;;;;;;;;;;;23.59;42.07;100081.84;5112427;28;1882;-56
2023/10/13 14:58:43;;;;;;;;;;;;;;;23.40;42.67;100084.84;5112381;28;824;-56
2023/10/13 15:01:16;;;;;;;;;;;;;;;23.14;43.04;100075.41;5112165;28;880;-56
2023/10/13 15:03:46;;;;;;;;;;;;;;;22.96;43.25;100087.59;5112232;28;817;-56
2023/10/13 15:06:29;;;;;;;;;;;;;;;22.78;44.05;100092.06;5112233;28;932;-56
2023/10/13 15:08:57;;;;;;;;;;;;;;;22.57;44.66;100099.56;5112407;28;842;-56
2023/10/13 15:11:27;;;;;;;;;;;;;;;22.39;44.84;100103.25;5112130;28;880;-56
2023/10/13 15:13:55;;;;;;;;;;;;;;;22.09;45.50;100090.25;5112126;28;1379;-56
2023/10/13 15:16:24;;;;;;;;;;;;;;;21.87;46.07;100091.28;5112114;28;1878;-56
2023/10/13 15:18:52;;;;;;;;;;;;;;;21.79;46.48;100099.25;5111851;28;1272;-56
2023/10/13 15:21:26;;;;;;;;;;;;;;;21.79;46.73;100095.66;5112035;28;798;-56
2023/10/13 15:23:52;;;;;;;;;;;;;;;21.71;47.03;100100.84;5112088;28;1593;-58
2023/10/13 15:26:21;;;;;;;;;;;;;;;21.64;47.14;100095.53;5112171;28;830;-58
2023/10/13 15:28:48;;;;;;;;;;;;;;;21.54;48.13;100099.63;5111940;28;925;-58
2023/10/13 15:34:06;;;;;;;;;;;;;;;21.29;49.31;100107.09;5112040;28;1237;-58
2023/10/13 15:36:36;;;;;;;;;;;;;;;21.24;49.59;100112.59;5111682;28;1965;-58
2023/10/13 15:39:07;;;;;;;;;;;;;;;21.21;49.92;100106.66;5111874;28;817;-59
2023/10/13 15:41:33;;;;;;;;;;;;;;;21.20;50.20;100119.13;5111792;28;967;-59
2023/10/13 15:44:01;;;;;;;;;;;;;;;21.10;50.88;100117.59;5111839;28;814;-59
2023/10/13 15:46:30;;;;;;;;;;;;;;;20.99;51.17;100122.88;5111787;28;913;-58
2023/10/13 15:48:57;;;;;;;;;;;;;;;20.89;51.82;100119.28;5111663;28;925;-59
2023/10/13 15:51:23;;;;;;;;;;;;;;;20.73;52.52;100119.56;5111816;28;860;-58
2023/10/13 15:53:51;;;;;;;;;;;;;;;20.63;53.02;100135.59;5111739;28;814;-58
2023/10/13 15:56:18;;;;;;;;;;;;;;;20.60;53.36;100134.50;5111487;28;1889;-58
2023/10/13 15:58:45;;;;;;;;;;;;;;;20.59;53.53;100144.19;5111767;28;806;-58
2023/10/13 16:01:16;;;;;;;;;;;;;;;20.54;53.72;100144.75;5111543;28;992;-58
2023/10/13 16:03:43;;;;;;;;;;;;;;;20.58;53.61;100142.63;5114053;28;817;-58
2023/10/13 16:06:10;;;;;;;;;;;;;;;20.59;53.80;100149.03;5115447;28;980;-58
2023/10/13 16:08:38;;;;;;;;;;;;;;;20.55;54.04;100156.78;5115323;28;806;-58
2023/10/13 16:11:07;;;;;;;;;;;;;;;20.47;54.26;100150.66;5115420;28;869;-58
2023/10/13 16:13:36;;;;;;;;;;;;;;;20.41;54.91;100146.91;5115558;28;960;-58
2023/10/13 16:16:05;;;;;;;;;;;;;;;20.31;55.24;100148.09;5115081;28;904;-58
2023/10/13 16:18:32;;;;;;;;;;;;;;;20.20;55.93;100154.13;5114817;28;1403;-58
2023/10/13 16:21:04;;;;;;;;;;;;;;;20.12;56.45;100164.06;5115075;28;802;-58
2023/10/13 16:23:31;;;;;;;;;;;;;;;20.03;56.89;100158.41;5114971;28;822;-58
2023/10/13 16:26:02;;;;;;;;;;;;;;;19.99;57.18;100166.97;5114937;28;790;-58
2023/10/13 16:28:34;;;;;;;;;;;;;;;19.96;57.38;100162.28;5115131;28;948;-57
2023/10/13 16:31:01;;;;;;;;;;;;;;;19.93;57.56;100157.59;5114708;28;957;-56
2023/10/13 16:33:28;;;;;;;;;;;;;;;19.88;58.07;100149.75;5114746;28;798;-57
2023/10/13 16:35:56;;;;;;;;;;;;;;;19.77;58.44;100150.94;5114668;28;934;-58
2023/10/13 16:38:27;;;;;;;;;;;;;;;19.69;58.94;100160.81;5114575;28;1959;-59
2023/10/13 16:40:54;;;;;;;;;;;;;;;19.50;60.02;100151.50;5114748;28;872;-59
2023/10/13 16:43:20;;;;;;;;;;;;;;;19.33;61.15;100159.31;5114593;28;883;-59
2023/10/13 16:45:47;;;;;;;;;;;;;;;19.25;61.79;100162.84;5114668;28;809;-59
2023/10/13 16:48:16;;;;;;;;;;;;;;;19.19;62.25;100159.81;5114716;28;922;-59
2023/10/13 16:50:43;;;;;;;;;;;;;;;19.15;62.40;100167.56;5114352;28;925;-59
2023/10/13 16:53:12;;;;;;;;;;;;;;;19.13;62.74;100164.44;5096255;28;1651;-59
2023/10/13 16:55:41;;;;;;;;;;;;;;;19.10;63.34;100171.72;5114423;28;879;-59
2023/10/13 16:58:10;;;;;;;;;;;;;;;19.07;63.25;100172.59;5114268;28;1889;-59